Terminal Aerodrome Forecast
Issued by NWS Nashville, TN

Home | Current Version | Previous Version | Text Only | Print | Product List | Glossary On
Versions: 1 2 3 4 5 6 7 8 9 10 11 12 13 14 15 16 17 18 19 20 21 22 23 24 25 26 27 28 29 30
083
FTUS44 KOHX 272320
TAFCSV
TAF
KCSV 272320Z 2800/2824 18006KT 5SM -SHRA FEW035 SCT050 OVC060
      TEMPO 2800/2804 2SM TSRA OVC025CB
     FM280500 21010G17KT P6SM OVC060
     FM281100 25006KT P6SM OVC005
     FM281600 28007KT P6SM BKN035=

USA.gov is the U.S. government's official web portal to all federal, state and local government web resources and services.